Time;durP1;ratioP1;P1;durP2;ratioP2;P2;SDS_P1;SDS_P2;PMS_P1;PMS_P2;Temp;Humidity;BMP_temperature;BMP_pressure;BME280_temperature;BME280_humidity;BME280_pressure;Samples;Min_cycle;Max_cycle;Signal;HPM_P1;HPM_P2
2024/03/14 00:02:05;;;;;;;;;21.00;18.50;;;;;9.66;100.00;99460.16;6282876;20;2836912;-48
2024/03/14 00:04:34;;;;;;;;;25.50;23.00;;;;;9.64;100.00;99458.50;6278767;20;2848274;-49
2024/03/14 00:07:03;;;;;;;;;22.50;19.50;;;;;9.56;100.00;99460.81;6281079;20;2841053;-46
2024/03/14 00:09:32;;;;;;;;;26.50;23.00;;;;;9.51;100.00;99462.91;6281591;20;2846139;-49
2024/03/14 00:12:02;;;;;;;;;23.33;22.00;;;;;9.57;100.00;99457.16;6279806;20;2848246;-48
2024/03/14 00:14:31;;;;;;;;;22.00;21.00;;;;;9.83;100.00;99463.59;6311041;20;2826279;-49
2024/03/14 00:16:59;;;;;;;;;27.50;25.00;;;;;9.73;100.00;99459.75;6281221;20;2852355;-47
2024/03/14 00:19:28;;;;;;;;;21.50;21.00;;;;;9.63;100.00;99454.09;6280650;20;2844125;-47
2024/03/14 00:21:57;;;;;;;;;25.00;23.00;;;;;9.47;100.00;99456.84;6284978;20;2847387;-46
2024/03/14 00:24:26;;;;;;;;;24.00;19.50;;;;;9.39;100.00;99449.28;6284626;20;2836890;-46
2024/03/14 00:26:54;;;;;;;;;22.50;18.00;;;;;9.64;100.00;99456.69;6284724;20;2498228;-47
2024/03/14 00:29:23;;;;;;;;;20.00;20.00;;;;;9.58;100.00;99450.81;6286220;20;2837872;-48
2024/03/14 00:31:52;;;;;;;;;21.50;18.00;;;;;9.50;100.00;99453.13;6286062;20;2829459;-47
2024/03/14 00:34:21;;;;;;;;;24.00;20.00;;;;;9.44;100.00;99451.69;6284642;20;2833632;-46
2024/03/14 00:36:50;;;;;;;;;21.00;20.00;;;;;9.29;100.00;99453.47;6285785;20;2825481;-46
2024/03/14 00:39:18;;;;;;;;;20.50;18.00;;;;;9.39;100.00;99460.00;6282525;20;2487767;-48
2024/03/14 00:41:47;;;;;;;;;19.33;18.00;;;;;9.25;100.00;99453.75;6285608;20;3552401;-49
2024/03/14 00:44:17;;;;;;;;;18.50;17.50;;;;;9.07;100.00;99459.25;6286146;20;2828542;-50
2024/03/14 00:46:45;;;;;;;;;21.00;16.50;;;;;9.24;100.00;99455.53;6287918;20;2837821;-45
2024/03/14 00:49:14;;;;;;;;;23.00;20.00;;;;;9.26;100.00;99453.66;6282621;20;2837908;-45
2024/03/14 00:51:44;;;;;;;;;21.00;21.00;;;;;9.35;100.00;99458.47;6283121;20;2500748;-49
2024/03/14 00:54:13;;;;;;;;;20.33;16.67;;;;;9.38;100.00;99454.75;6284951;20;3562767;-46
2024/03/14 00:56:43;;;;;;;;;22.00;19.00;;;;;9.45;100.00;99454.28;6284017;20;2491956;-46
2024/03/14 00:59:12;;;;;;;;;17.50;16.00;;;;;9.30;100.00;99448.97;6288357;20;2824284;-47
2024/03/14 01:01:44;;;;;;;;;16.67;16.67;;;;;9.35;100.00;99446.91;6285288;20;3561726;-48
2024/03/14 01:04:13;;;;;;;;;21.50;18.50;;;;;9.20;100.00;99446.84;6284104;20;2492085;-44
2024/03/14 01:06:42;;;;;;;;;18.00;18.00;;;;;9.21;100.00;99445.88;6283353;20;2831526;-47
2024/03/14 01:09:11;;;;;;;;;17.00;17.00;;;;;9.24;100.00;99444.81;6285695;20;3559850;-47
2024/03/14 01:11:43;;;;;;;;;16.50;16.00;;;;;9.35;100.00;99446.91;6286541;20;2820088;-47
2024/03/14 01:14:12;;;;;;;;;15.00;14.33;;;;;9.30;100.00;99443.63;6286385;20;3542027;-46
2024/03/14 01:16:41;;;;;;;;;16.50;16.50;;;;;9.26;100.00;99442.94;6313267;20;2827386;-49
2024/03/14 01:19:11;;;;;;;;;17.67;16.00;;;;;9.52;100.00;99448.53;6285797;20;3569012;-45
2024/03/14 01:21:39;;;;;;;;;20.33;17.67;;;;;9.06;100.00;99448.59;6284362;20;3570045;-46
2024/03/14 01:24:07;;;;;;;;;17.00;17.00;;;;;8.97;100.00;99442.84;6283607;20;2496106;-46
2024/03/14 01:26:35;;;;;;;;;18.00;16.00;;;;;9.01;100.00;99449.75;6280342;20;2500309;-48
2024/03/14 01:29:06;;;;;;;;;15.00;14.00;;;;;9.10;100.00;99442.97;6283081;20;2498204;-47
2024/03/14 01:31:34;;;;;;;;;13.50;13.50;;;;;9.32;100.00;99441.69;6284256;20;2498310;-51
2024/03/14 01:34:02;;;;;;;;;17.50;16.50;;;;;9.36;100.00;99444.09;6283790;20;2838015;-48
2024/03/14 01:36:30;;;;;;;;;19.00;18.00;;;;;9.21;100.00;99448.56;6280815;20;2487793;-48
2024/03/14 01:38:58;;;;;;;;;18.00;18.00;;;;;9.43;100.00;99450.81;6286416;20;2835700;-47
2024/03/14 01:41:26;;;;;;;;;19.50;17.50;;;;;9.30;100.00;99448.97;6280888;20;2492056;-45
2024/03/14 01:43:59;;;;;;;;;17.00;17.00;;;;;9.17;100.00;99438.13;6284154;20;2829569;-47
2024/03/14 01:46:31;;;;;;;;;20.00;18.67;;;;;9.39;100.00;99433.19;6282178;20;3569024;-48
2024/03/14 01:49:01;;;;;;;;;24.50;22.00;;;;;9.50;100.00;99440.56;6282475;20;2852363;-47
2024/03/14 01:51:31;;;;;;;;;24.00;20.50;;;;;9.08;100.00;99426.13;6284734;20;2838832;-48
2024/03/14 01:54:00;;;;;;;;;30.50;25.00;;;;;9.21;100.00;99436.97;6283250;20;2845080;-46
2024/03/14 01:56:30;;;;;;;;;32.00;27.00;;;;;9.46;100.00;99433.69;6282904;20;2853479;-47
2024/03/14 01:58:59;;;;;;;;;34.00;29.67;;;;;9.40;100.00;99434.94;6317107;20;3612764;-47
2024/03/14 02:01:28;;;;;;;;;27.33;24.67;;;;;9.29;100.00;99431.16;6285177;20;3596083;-46
2024/03/14 02:04:17;;;;;;;;;30.00;25.50;;;;;8.82;100.00;99438.41;6280154;20;2856728;-49
2024/03/14 02:07:08;;;;;;;;;29.33;25.33;;;;;8.88;100.00;99431.84;6313843;20;3595180;-49
2024/03/14 02:09:37;;;;;;;;;30.33;28.67;;;;;8.96;100.00;99435.78;6314274;20;3608631;-48
2024/03/14 02:12:10;;;;;;;;;30.00;27.00;;;;;8.92;100.00;99430.69;6284205;20;2856573;-46
2024/03/14 02:14:39;;;;;;;;;32.00;25.67;;;;;8.88;100.00;99427.34;6314957;20;3622115;-48
2024/03/14 02:17:08;;;;;;;;;30.00;26.00;;;;;9.16;100.00;99431.03;6282525;20;2855478;-46
2024/03/14 02:19:38;;;;;;;;;31.33;30.00;;;;;9.15;100.00;99430.19;6282503;20;2861860;-47
2024/03/14 02:22:07;;;;;;;;;31.00;30.00;;;;;9.23;100.00;99429.72;6319194;20;3606538;-46
2024/03/14 02:24:36;;;;;;;;;27.00;24.33;;;;;9.15;100.00;99423.97;6279371;20;2860956;-48
2024/03/14 02:27:06;;;;;;;;;28.00;27.00;;;;;8.99;100.00;99430.22;6313000;20;2856671;-46
2024/03/14 02:29:35;;;;;;;;;27.00;25.50;;;;;8.92;100.00;99426.19;6281026;20;2848245;-47
2024/03/14 02:32:04;;;;;;;;;28.00;22.50;;;;;8.83;100.00;99432.09;6281406;20;2841173;-48
2024/03/14 02:34:34;;;;;;;;;24.00;22.50;;;;;8.88;100.00;99432.69;6280689;20;2835809;-47
2024/03/14 02:37:02;;;;;;;;;22.50;20.50;;;;;8.92;100.00;99430.69;6278969;20;2831526;-49
2024/03/14 02:39:34;;;;;;;;;25.00;20.50;;;;;8.90;100.00;99433.47;6280610;20;2841949;-48
2024/03/14 02:42:05;;;;;;;;;27.00;24.00;;;;;9.05;100.00;99428.16;6282018;20;2848226;-49
2024/03/14 02:44:33;;;;;;;;;18.00;15.50;;;;;8.77;100.00;99424.44;6281463;20;2817983;-46
2024/03/14 02:47:01;;;;;;;;;26.00;23.00;;;;;8.88;100.00;99429.16;6282581;20;2839862;-47
2024/03/14 02:49:30;;;;;;;;;26.00;23.50;;;;;9.19;100.00;99425.53;6281916;20;2841963;-46
2024/03/14 02:52:00;;;;;;;;;23.00;21.00;;;;;8.92;100.00;99431.53;6282920;20;2846121;-48
2024/03/14 02:54:31;;;;;;;;;24.00;20.50;;;;;8.90;100.00;99428.13;6278867;20;2837785;-47
2024/03/14 02:57:00;;;;;;;;;23.00;21.00;;;;;8.95;100.00;99425.16;6279010;20;2832656;-47
2024/03/14 02:59:30;;;;;;;;;27.67;23.33;;;;;8.97;100.00;99425.91;6277107;20;2849280;-46
2024/03/14 03:02:00;;;;;;;;;22.50;21.00;;;;;9.01;100.00;99436.38;6309153;20;2842993;-48
2024/03/14 03:04:30;;;;;;;;;24.00;22.00;;;;;9.02;100.00;99421.16;6276911;20;2838909;-46
2024/03/14 03:07:05;;;;;;;;;25.00;22.50;;;;;8.99;100.00;99432.91;6279605;20;2837803;-47
2024/03/14 03:09:38;;;;;;;;;25.50;23.00;;;;;9.01;100.00;99422.13;6279403;20;2846100;-48
2024/03/14 03:12:07;;;;;;;;;24.33;24.33;;;;;8.92;100.00;99434.22;6283104;20;2852458;-46
2024/03/14 03:14:36;;;;;;;;;25.67;24.67;;;;;8.96;100.00;99419.72;6314727;20;3568165;-46
2024/03/14 03:17:05;;;;;;;;;24.50;19.00;;;;;8.99;100.00;99430.22;6310813;20;2491932;-47
2024/03/14 03:19:36;;;;;;;;;21.50;19.50;;;;;8.87;100.00;99422.06;6280332;20;2844035;-47
2024/03/14 03:22:05;;;;;;;;;26.00;26.00;;;;;8.85;100.00;99427.53;6282801;20;2842978;-46
2024/03/14 03:24:34;;;;;;;;;25.50;21.00;;;;;8.74;100.00;99425.47;6278791;20;2824329;-51
2024/03/14 03:27:08;;;;;;;;;30.00;28.00;;;;;8.74;100.00;99421.91;6277444;20;2856630;-45
2024/03/14 03:29:37;;;;;;;;;25.00;24.00;;;;;8.61;100.00;99418.22;6312355;20;2846140;-48
2024/03/14 03:32:06;;;;;;;;;24.00;23.00;;;;;8.79;100.00;99422.50;6280505;20;2831655;-49
2024/03/14 03:34:34;;;;;;;;;24.00;24.00;;;;;8.67;100.00;99428.59;6279829;20;2846191;-47
2024/03/14 03:37:05;;;;;;;;;22.00;21.00;;;;;8.72;100.00;99418.47;6281063;20;2836846;-47
2024/03/14 03:39:34;;;;;;;;;24.50;23.00;;;;;8.53;100.00;99424.00;6280747;20;2850486;-48
2024/03/14 03:42:03;;;;;;;;;27.50;24.50;;;;;8.23;100.00;99419.44;6280864;20;2845092;-47
2024/03/14 03:44:33;;;;;;;;;26.00;24.00;;;;;8.31;100.00;99422.53;6280835;20;2852365;-48
2024/03/14 03:47:01;;;;;;;;;23.00;23.00;;;;;8.25;100.00;99424.72;6312913;20;2834651;-46
2024/03/14 03:49:29;;;;;;;;;21.00;21.00;;;;;8.13;100.00;99424.41;6275969;20;2500367;-47
2024/03/14 03:51:58;;;;;;;;;26.00;23.00;;;;;8.04;100.00;99422.28;6280899;20;2836786;-47
2024/03/14 03:54:27;;;;;;;;;17.00;17.00;;;;;8.16;100.00;99434.09;6279909;20;2827470;-50
2024/03/14 03:56:55;;;;;;;;;21.50;17.00;;;;;8.03;100.00;99439.28;6278679;20;2496178;-46
2024/03/14 03:59:24;;;;;;;;;15.50;15.00;;;;;8.34;100.00;99438.41;6282751;20;2817985;-47
2024/03/14 04:01:52;;;;;;;;;19.00;17.00;;;;;8.59;100.00;99446.91;6282133;20;2820196;-48
2024/03/14 04:04:22;;;;;;;;;14.00;13.00;;;;;8.59;100.00;99445.09;6278946;20;2803442;-46
2024/03/14 04:06:51;;;;;;;;;14.67;14.00;;;;;8.62;100.00;99452.09;6311244;20;3526299;-47
2024/03/14 04:09:19;;;;;;;;;19.00;18.50;;;;;8.46;100.00;99452.09;6279309;20;2826404;-46
2024/03/14 04:11:46;;;;;;;;;23.00;18.00;;;;;8.22;100.00;99455.16;6281145;20;2496167;-51
2024/03/14 04:14:14;;;;;;;;;20.00;20.00;;;;;8.23;100.00;99456.00;6280417;20;2832597;-47
2024/03/14 04:16:43;;;;;;;;;17.00;15.50;;;;;7.98;100.00;99457.38;6280497;20;2496231;-50
2024/03/14 04:19:11;;;;;;;;;21.50;19.50;;;;;7.83;100.00;99452.84;6279784;20;2498194;-47
2024/03/14 04:21:39;;;;;;;;;19.50;18.00;;;;;7.89;100.00;99452.50;6276318;20;2500426;-45
2024/03/14 04:24:07;;;;;;;;;21.50;19.00;;;;;7.87;100.00;99457.97;6277459;20;2491965;-49
2024/03/14 04:26:35;;;;;;;;;26.50;19.00;;;;;8.02;100.00;99458.06;6281746;20;2844036;-49
2024/03/14 04:29:06;;;;;;;;;18.00;16.00;;;;;8.28;100.00;99457.47;6280073;20;2833635;-48
2024/03/14 04:31:35;;;;;;;;;17.50;17.50;;;;;8.63;100.00;99469.84;6307287;20;2821201;-46
2024/03/14 04:34:04;;;;;;;;;5.00;3.75;;;;;8.55;100.00;99479.16;6296292;20;1811781;-51
2024/03/14 04:36:33;;;;;;;;;16.00;14.00;;;;;8.46;100.00;99474.34;6313371;20;2800280;-50
2024/03/14 04:39:02;;;;;;;;;25.00;22.50;;;;;8.49;100.00;99479.53;6280726;20;2850384;-48
2024/03/14 04:41:31;;;;;;;;;24.00;22.50;;;;;8.72;100.00;99486.25;6280062;20;2841953;-48
2024/03/14 04:43:59;;;;;;;;;21.50;18.00;;;;;8.54;100.00;99482.81;6281907;20;2833631;-47
2024/03/14 04:46:27;;;;;;;;;23.50;20.50;;;;;8.63;100.00;99480.56;6279625;20;2492003;-50
2024/03/14 04:48:56;;;;;;;;;15.50;15.50;;;;;8.78;100.00;99485.91;6277542;20;2500395;-48
2024/03/14 04:51:24;;;;;;;;;18.00;17.50;;;;;8.49;100.00;99489.38;6277943;20;2833612;-48
2024/03/14 04:53:51;;;;;;;;;19.50;19.50;;;;;7.93;100.00;99483.50;6279577;20;2500305;-45
2024/03/14 04:56:23;;;;;;;;;21.50;21.00;;;;;8.45;100.00;99488.69;6279440;20;2833567;-45
2024/03/14 04:58:51;;;;;;;;;18.00;15.50;;;;;8.42;100.00;99491.50;6278315;20;2491971;-47
2024/03/14 05:01:19;;;;;;;;;24.50;21.50;;;;;8.52;100.00;99492.72;6279536;20;2491971;-49
2024/03/14 05:03:48;;;;;;;;;24.00;24.00;;;;;8.49;100.00;99490.22;6277328;20;2839947;-47
2024/03/14 05:06:16;;;;;;;;;27.00;19.50;;;;;8.51;100.00;99493.69;6279330;20;2500335;-45
2024/03/14 05:08:45;;;;;;;;;27.50;21.50;;;;;8.43;100.00;99490.59;6283819;20;2832575;-49
2024/03/14 05:11:14;;;;;;;;;36.50;28.00;;;;;8.32;100.00;99487.59;6284424;20;2865011;-48
2024/03/14 05:13:44;;;;;;;;;35.67;30.33;;;;;8.46;100.00;99490.41;6283484;20;2861987;-46
2024/03/14 05:16:14;;;;;;;;;32.67;29.67;;;;;8.68;100.00;99494.53;6316318;20;3600259;-45
2024/03/14 05:18:45;;;;;;;;;31.33;28.33;;;;;8.59;100.00;99495.06;6314215;20;3600284;-47
2024/03/14 05:21:15;;;;;;;;;35.00;31.67;;;;;8.58;100.00;99496.88;6318365;20;3605546;-46
2024/03/14 05:23:44;;;;;;;;;37.33;32.00;;;;;8.42;100.00;99499.53;6285940;20;3614847;-48
2024/03/14 05:26:13;;;;;;;;;43.33;35.67;;;;;8.66;100.00;99493.75;6287282;20;3601289;-46
2024/03/14 05:28:43;;;;;;;;;36.67;33.67;;;;;8.49;100.00;99500.06;6282422;20;2859841;-46
2024/03/14 05:31:11;;;;;;;;;40.67;36.67;;;;;8.40;100.00;99503.25;6320551;20;3582593;-47
2024/03/14 05:33:42;;;;;;;;;55.00;45.50;;;;;8.57;100.00;99500.50;6281058;20;2851349;-48
2024/03/14 05:36:12;;;;;;;;;61.00;48.33;;;;;8.57;100.00;99503.19;6281945;20;3621089;-47
2024/03/14 05:38:42;;;;;;;;;46.67;38.67;;;;;8.52;100.00;99502.56;6316034;20;2840000;-49
2024/03/14 05:41:11;;;;;;;;;55.33;45.00;;;;;8.58;100.00;99502.22;6315599;20;2873289;-48
2024/03/14 05:43:45;;;;;;;;;57.67;45.67;;;;;8.88;100.00;99502.31;6315038;20;3613833;-48
2024/03/14 05:46:14;;;;;;;;;57.67;47.00;;;;;8.79;99.94;99513.53;6315081;20;2852365;-48
2024/03/14 05:48:43;;;;;;;;;52.00;42.00;;;;;8.97;98.09;99507.09;6315025;20;2853444;-46
2024/03/14 05:51:12;;;;;;;;;46.50;38.00;;;;;9.05;98.55;99509.34;6281163;20;2859689;-47
2024/03/14 05:53:41;;;;;;;;;47.67;37.67;;;;;8.89;98.44;99520.06;6288039;20;3599242;-48
2024/03/14 05:56:10;;;;;;;;;41.33;31.00;;;;;8.99;99.59;99510.56;6284763;20;3623221;-46
2024/03/14 05:58:40;;;;;;;;;45.67;37.00;;;;;9.06;100.00;99518.22;6315714;20;2855641;-46
2024/03/14 06:01:13;;;;;;;;;65.67;50.33;;;;;9.08;96.89;99524.38;6313696;20;3629491;-47
2024/03/14 06:03:44;;;;;;;;;46.67;37.00;;;;;9.09;95.99;99526.13;6314969;20;3612827;-48
2024/03/14 06:06:18;;;;;;;;;70.00;54.00;;;;;9.31;94.67;99523.03;6315021;20;3628371;-47
2024/03/14 06:08:48;;;;;;;;;102.25;99.50;;;;;8.96;94.68;99529.50;6315519;20;4439830;-48
2024/03/14 06:11:17;;;;;;;;;94.00;87.50;;;;;9.12;93.71;99525.94;6316471;20;4416931;-50
2024/03/14 06:13:46;;;;;;;;;48.50;40.00;;;;;8.92;92.81;99532.44;6315218;20;2839866;-48
2024/03/14 06:16:15;;;;;;;;;51.00;41.00;;;;;9.11;92.71;99534.91;6282133;20;2854550;-49
2024/03/14 06:18:45;;;;;;;;;41.00;31.33;;;;;9.11;89.79;99529.53;6283796;20;2869224;-47
2024/03/14 06:21:14;;;;;;;;;43.00;33.33;;;;;9.19;86.54;99530.84;6316058;20;3621236;-49
2024/03/14 06:23:44;;;;;;;;;37.33;33.00;;;;;9.26;86.87;99528.66;6284273;20;2858832;-47
2024/03/14 06:26:12;;;;;;;;;43.33;35.33;;;;;9.40;84.86;99531.41;6315548;20;3588855;-51
2024/03/14 06:28:42;;;;;;;;;29.00;29.00;;;;;9.45;79.08;99534.66;6282088;20;3596075;-49
2024/03/14 06:31:15;;;;;;;;;38.33;33.00;;;;;9.70;80.31;99538.56;6315769;20;3610814;-52
2024/03/14 06:33:46;;;;;;;;;41.67;33.00;;;;;9.53;77.52;99546.72;6285513;20;2860788;-47
2024/03/14 06:36:15;;;;;;;;;36.00;32.67;;;;;9.47;77.49;99542.59;6318401;20;3594120;-50
2024/03/14 06:38:44;;;;;;;;;32.33;31.33;;;;;9.53;76.50;99546.72;6283037;20;2855518;-47
2024/03/14 06:41:14;;;;;;;;;41.00;33.00;;;;;9.59;78.47;99551.75;6316853;20;3610693;-48
2024/03/14 06:43:44;;;;;;;;;36.00;31.00;;;;;9.63;78.82;99548.75;6282166;20;3623307;-49
2024/03/14 06:46:16;;;;;;;;;35.67;31.33;;;;;9.84;76.37;99545.75;6316228;20;3606530;-47
2024/03/14 06:48:45;;;;;;;;;34.67;31.00;;;;;9.90;74.92;99553.44;6282699;20;3604549;-49
2024/03/14 06:51:14;;;;;;;;;35.00;32.00;;;;;9.85;75.36;99564.44;6312403;20;2799237;-51
2024/03/14 06:53:45;;;;;;;;;36.00;32.00;;;;;9.72;77.75;99566.13;6281432;20;2822156;-49
2024/03/14 06:56:15;;;;;;;;;39.33;31.00;;;;;9.47;79.30;99564.03;6286951;20;3625274;-51
2024/03/14 06:58:46;;;;;;;;;29.00;29.00;;;;;9.77;80.87;99563.16;6285256;20;3601324;-50
2024/03/14 07:01:17;;;;;;;;;38.67;34.00;;;;;10.10;78.72;99562.94;6283522;20;3612758;-49
2024/03/14 07:03:46;;;;;;;;;38.33;33.00;;;;;10.27;78.45;99565.47;6316412;20;3597235;-50
2024/03/14 07:06:16;;;;;;;;;32.67;31.33;;;;;10.48;78.01;99573.16;6279919;20;2840970;-52
2024/03/14 07:08:46;;;;;;;;;32.00;31.33;;;;;10.17;79.33;99575.03;6316870;20;3594045;-49
2024/03/14 07:11:15;;;;;;;;;33.00;29.33;;;;;10.10;78.27;99584.41;6280016;20;3603393;-50
2024/03/14 07:13:48;;;;;;;;;36.00;31.67;;;;;10.04;77.74;99584.78;6317482;20;3623157;-48
2024/03/14 07:16:18;;;;;;;;;34.33;28.67;;;;;10.26;78.78;99584.31;6284585;20;3613798;-50
2024/03/14 07:18:49;;;;;;;;;35.33;32.00;;;;;10.24;75.76;99586.22;6285816;20;3591954;-49
2024/03/14 07:21:18;;;;;;;;;39.67;31.67;;;;;10.25;74.98;99587.97;6280580;20;3600225;-47
2024/03/14 07:23:47;;;;;;;;;37.00;29.67;;;;;10.12;75.19;99593.22;6313685;20;3623176;-49
2024/03/14 07:26:23;;;;;;;;;33.33;31.33;;;;;10.28;75.84;99599.41;6284274;20;3605546;-51
2024/03/14 07:28:53;;;;;;;;;28.00;25.67;;;;;10.35;75.85;99604.38;6279653;20;2851570;-50
2024/03/14 07:31:23;;;;;;;;;43.33;35.00;;;;;10.30;74.34;99593.94;6313170;20;3604437;-49
2024/03/14 07:33:52;;;;;;;;;41.00;33.33;;;;;10.00;76.38;99604.69;6280081;20;2858752;-49
2024/03/14 07:36:24;;;;;;;;;36.67;30.00;;;;;10.39;75.61;99600.56;6310897;20;3610839;-53
2024/03/14 07:38:53;;;;;;;;;38.33;32.00;;;;;9.60;78.18;99599.88;6312788;20;3594068;-53
2024/03/14 07:41:23;;;;;;;;;37.00;30.00;;;;;10.38;75.68;99610.44;6281792;20;2852459;-51
2024/03/14 07:43:55;;;;;;;;;39.67;34.00;;;;;10.32;74.42;99610.78;6313739;20;3604507;-47
2024/03/14 07:46:43;;;;;;;;;33.00;32.00;;;;;9.85;76.20;99612.72;6280210;20;2837774;-48
2024/03/14 07:49:14;;;;;;;;;37.33;33.00;;;;;10.14;77.94;99611.88;6277256;20;3614881;-51
2024/03/14 07:51:43;;;;;;;;;35.33;33.00;;;;;10.39;76.11;99616.66;6311854;20;3607633;-47
2024/03/14 07:54:14;;;;;;;;;38.67;33.00;;;;;10.62;73.81;99612.53;6277904;20;3583660;-49
2024/03/14 07:56:46;;;;;;;;;36.00;30.33;;;;;10.45;73.48;99617.16;6314004;20;3595074;-51
2024/03/14 07:59:17;;;;;;;;;37.33;32.33;;;;;10.95;72.88;99622.94;6283214;20;3602905;-48
2024/03/14 08:01:46;;;;;;;;;30.00;27.33;;;;;10.31;73.65;99623.34;6278765;20;2865058;-50
2024/03/14 08:04:22;;;;;;;;;43.00;33.00;;;;;10.64;72.64;99624.06;6313821;20;3616941;-48
2024/03/14 08:06:52;;;;;;;;;44.50;35.00;;;;;10.99;71.10;99629.88;6280924;20;2853419;-51
2024/03/14 08:09:26;;;;;;;;;50.00;39.33;;;;;10.88;72.08;99618.94;6281171;20;3605493;-51
2024/03/14 08:11:56;;;;;;;;;49.67;39.00;;;;;10.94;71.06;99623.91;6280842;20;3622114;-48
2024/03/14 08:14:26;;;;;;;;;43.67;36.33;;;;;10.26;72.23;99617.38;6310145;20;2848194;-48
2024/03/14 08:16:55;;;;;;;;;39.00;34.00;;;;;10.10;75.68;99621.94;6314488;20;2746262;-49
2024/03/14 08:19:23;;;;;;;;;43.50;35.00;;;;;10.11;77.85;99629.06;6311020;20;2846145;-51
2024/03/14 08:21:52;;;;;;;;;41.00;36.00;;;;;10.84;73.88;99626.31;6279674;20;2849415;-50
2024/03/14 08:24:21;;;;;;;;;38.00;33.67;;;;;11.05;73.04;99632.13;6281171;20;3582559;-52
2024/03/14 08:26:50;;;;;;;;;43.33;36.33;;;;;10.74;73.29;99634.13;6315190;20;3600295;-49
2024/03/14 08:29:20;;;;;;;;;41.00;34.00;;;;;10.68;75.50;99634.47;6279565;20;2846234;-49
2024/03/14 08:31:50;;;;;;;;;42.33;32.33;;;;;11.14;72.15;99636.09;6282692;20;3609676;-49
2024/03/14 08:34:20;;;;;;;;;34.00;30.00;;;;;10.21;74.33;99635.56;6306444;20;2852511;-51
2024/03/14 08:36:50;;;;;;;;;40.67;32.33;;;;;10.43;75.33;99635.16;6311168;20;3594081;-50
2024/03/14 08:39:22;;;;;;;;;34.33;30.00;;;;;9.92;77.27;99644.50;6279080;20;3623203;-48
2024/03/14 08:41:50;;;;;;;;;40.33;34.00;;;;;10.99;75.04;99645.97;6316552;20;3617997;-53
2024/03/14 08:44:26;;;;;;;;;33.33;31.33;;;;;11.55;71.58;99646.78;6286377;20;3608591;-48
2024/03/14 08:46:56;;;;;;;;;33.67;31.00;;;;;11.56;69.09;99650.38;6285078;20;2873299;-47
2024/03/14 08:49:26;;;;;;;;;39.67;35.67;;;;;11.26;71.92;99653.22;6313947;20;2865001;-45
2024/03/14 08:51:55;;;;;;;;;34.33;31.33;;;;;11.76;69.53;99654.41;6317065;20;3581597;-46
2024/03/14 08:56:53;;;;;;;;;35.00;32.00;;;;;11.23;70.62;99661.47;6320275;20;3577467;-48
2024/03/14 08:59:23;;;;;;;;;42.33;33.33;;;;;11.60;70.77;99658.09;6285109;20;3594045;-50
2024/03/14 09:01:52;;;;;;;;;32.67;29.00;;;;;11.59;70.66;99658.22;6282637;20;3619065;-48
2024/03/14 09:04:22;;;;;;;;;33.00;30.00;;;;;11.81;69.40;99657.63;6315756;20;3590005;-51
2024/03/14 09:06:51;;;;;;;;;41.00;33.33;;;;;11.86;69.54;99651.00;6288795;20;3596160;-48
2024/03/14 09:09:23;;;;;;;;;42.33;35.67;;;;;11.88;69.20;99652.75;6281527;20;3611868;-50
2024/03/14 09:11:55;;;;;;;;;36.33;31.67;;;;;11.76;69.66;99649.00;6318826;20;3588837;-48
2024/03/14 09:14:25;;;;;;;;;37.67;32.00;;;;;12.06;67.22;99655.06;6282864;20;3595081;-50
2024/03/14 09:16:55;;;;;;;;;62.33;50.00;;;;;12.49;66.00;99660.16;6284723;20;3609656;-48
2024/03/14 09:19:23;;;;;;;;;30.33;27.67;;;;;11.13;70.70;99650.47;6317913;20;3604425;-48
2024/03/14 09:21:53;;;;;;;;;53.67;44.67;;;;;11.35;71.00;99652.63;6284391;20;2854489;-49
2024/03/14 09:24:22;;;;;;;;;30.33;25.33;;;;;12.38;68.29;99653.81;6317786;20;3597260;-48
2024/03/14 09:26:53;;;;;;;;;29.67;28.33;;;;;12.16;66.67;99657.97;6281370;20;3607101;-53
2024/03/14 09:29:23;;;;;;;;;27.67;26.33;;;;;11.60;68.56;99654.56;6317037;20;3592042;-50
2024/03/14 09:31:55;;;;;;;;;29.67;26.33;;;;;12.42;67.58;99655.31;6282879;20;3598264;-50
2024/03/14 09:34:24;;;;;;;;;32.33;28.33;;;;;11.56;66.33;99653.06;6316233;20;3603433;-49
2024/03/14 09:36:55;;;;;;;;;26.33;23.67;;;;;12.27;66.15;99657.25;6286500;20;3576364;-50
2024/03/14 09:39:35;;;;;;;;;37.33;31.00;;;;;12.26;63.66;99658.19;6282420;20;3595067;-50
2024/03/14 09:42:05;;;;;;;;;25.67;24.00;;;;;12.03;65.00;99649.88;6319195;20;3582574;-47
2024/03/14 09:44:38;;;;;;;;;27.33;26.67;;;;;11.47;65.76;99659.03;6278970;20;2852415;-51
2024/03/14 09:47:37;;;;;;;;;32.33;29.33;;;;;12.18;65.91;99652.47;6312460;20;3608592;-52
2024/03/14 09:50:10;;;;;;;;;28.00;27.00;;;;;12.31;65.95;99650.66;6316359;20;3596101;-51
2024/03/14 09:52:40;;;;;;;;;28.67;26.00;;;;;12.49;63.00;99653.91;6282460;20;2850398;-49
2024/03/14 09:55:16;;;;;;;;;27.00;26.00;;;;;12.52;65.02;99654.53;6310849;20;3602351;-53
2024/03/14 09:57:45;;;;;;;;;30.00;25.33;;;;;12.94;63.14;99657.84;6318023;20;3604452;-48
2024/03/14 10:00:15;;;;;;;;;28.33;27.67;;;;;12.36;63.88;99653.91;6280474;20;2858713;-49
2024/03/14 10:02:46;;;;;;;;;30.33;25.33;;;;;12.43;64.65;99651.66;6315529;20;3579465;-49
2024/03/14 10:05:19;;;;;;;;;32.00;28.00;;;;;12.07;65.63;99654.06;6278770;20;3585673;-51
2024/03/14 10:07:49;;;;;;;;;27.00;27.00;;;;;13.19;60.35;99650.69;6282246;20;3581943;-52
2024/03/14 10:10:19;;;;;;;;;31.00;27.33;;;;;13.60;59.65;99652.19;6279990;20;2849366;-50
2024/03/14 10:12:52;;;;;;;;;26.00;26.00;;;;;14.16;58.52;99654.28;6315416;20;3586711;-48
2024/03/14 10:15:23;;;;;;;;;26.00;24.67;;;;;14.03;58.26;99648.94;6281172;20;3589883;-49
2024/03/14 10:17:53;;;;;;;;;29.00;25.33;;;;;13.99;60.15;99642.06;6283692;20;3604531;-51
2024/03/14 10:20:25;;;;;;;;;29.25;27.50;;;;;14.05;58.64;99641.59;6308293;20;3588148;-49
2024/03/14 10:22:54;;;;;;;;;29.67;27.00;;;;;13.86;59.01;99642.16;6281568;20;3604452;-48
2024/03/14 10:25:24;;;;;;;;;27.33;25.00;;;;;13.39;58.07;99644.72;6311791;20;3595577;-50
2024/03/14 10:27:55;;;;;;;;;30.67;24.33;;;;;13.62;59.28;99644.88;6283183;20;3606550;-49
2024/03/14 10:30:57;;;;;;;;;26.00;24.67;;;;;13.95;58.65;99637.88;6280142;20;2850325;-49
2024/03/14 10:33:27;;;;;;;;;28.00;26.00;;;;;13.93;61.39;99637.13;6312027;20;3606604;-47
2024/03/14 10:36:00;;;;;;;;;30.67;26.67;;;;;12.68;61.46;99634.63;6279132;20;3604469;-48
2024/03/14 10:38:35;;;;;;;;;25.67;24.33;;;;;13.87;61.12;99626.81;6311198;20;3582571;-48
2024/03/14 10:41:09;;;;;;;;;24.33;23.67;;;;;14.08;58.39;99638.66;6282149;20;3571100;-53
2024/03/14 10:43:49;;;;;;;;;31.67;29.33;;;;;12.99;59.49;99635.97;6277884;20;3606656;-52
2024/03/14 10:46:19;;;;;;;;;10.00;8.67;;;;;13.97;58.04;99642.19;6310339;20;2775291;-50
2024/03/14 10:48:49;;;;;;;;;28.67;25.33;;;;;12.67;61.07;99630.22;6316090;20;3594015;-47
2024/03/14 10:51:20;;;;;;;;;30.67;27.00;;;;;13.19;61.29;99634.50;6279662;20;3597223;-48
2024/03/14 10:53:50;;;;;;;;;30.67;26.67;;;;;14.19;56.84;99630.63;6310008;20;3595042;-47
2024/03/14 10:56:22;;;;;;;;;27.33;26.00;;;;;14.02;56.77;99625.63;6278199;20;2853548;-49
2024/03/14 10:58:54;;;;;;;;;32.67;26.33;;;;;14.30;56.20;99634.28;6309524;20;3614987;-48
2024/03/14 11:01:26;;;;;;;;;26.67;25.00;;;;;14.34;55.77;99630.38;6313595;20;3589944;-48
2024/03/14 11:03:55;;;;;;;;;27.00;26.00;;;;;14.13;57.87;99627.50;6278097;20;3592416;-49
2024/03/14 11:06:27;;;;;;;;;26.50;24.50;;;;;13.33;58.11;99620.91;6281681;20;2840924;-47
2024/03/14 11:09:03;;;;;;;;;28.00;25.00;;;;;14.15;58.46;99621.00;6278195;20;2852785;-47
2024/03/14 11:11:38;;;;;;;;;22.33;21.00;;;;;13.19;57.06;99621.03;6282237;20;2835811;-47
2024/03/14 11:14:11;;;;;;;;;25.67;21.33;;;;;12.82;58.86;99617.47;6311778;20;3583680;-46
2024/03/14 11:16:48;;;;;;;;;22.00;20.50;;;;;13.32;57.77;99619.22;6276164;20;2844071;-50
2024/03/14 11:19:23;;;;;;;;;25.00;23.67;;;;;13.52;58.59;99616.84;6282009;20;3585666;-46